sensor_id;sensor_type;location;lat;lon;timestamp;P1;durP1;ratioP1;P2;durP2;ratioP2
49842;SDS011;55559;48.898;9.184;2023-11-19T00:00:01;2.67;;;0.80;;
49842;SDS011;55559;48.898;9.184;2023-11-19T00:02:33;4.95;;;0.73;;
49842;SDS011;55559;48.898;9.184;2023-11-19T00:05:07;3.83;;;1.13;;
49842;SDS011;55559;48.898;9.184;2023-11-19T00:07:38;7.00;;;0.82;;
49842;SDS011;55559;48.898;9.184;2023-11-19T00:10:13;5.15;;;0.80;;
49842;SDS011;55559;48.898;9.184;2023-11-19T00:12:50;1.88;;;0.50;;
49842;SDS011;55559;48.898;9.184;2023-11-19T00:15:18;2.80;;;0.70;;
49842;SDS011;55559;48.898;9.184;2023-11-19T00:17:59;3.35;;;0.60;;
49842;SDS011;55559;48.898;9.184;2023-11-19T00:20:40;3.67;;;0.60;;
49842;SDS011;55559;48.898;9.184;2023-11-19T00:23:08;2.85;;;0.40;;
49842;SDS011;55559;48.898;9.184;2023-11-19T00:25:41;2.55;;;0.50;;
49842;SDS011;55559;48.898;9.184;2023-11-19T00:28:09;9.40;;;0.40;;
49842;SDS011;55559;48.898;9.184;2023-11-19T00:30:43;2.05;;;0.50;;
49842;SDS011;55559;48.898;9.184;2023-11-19T00:33:10;2.08;;;0.40;;
49842;SDS011;55559;48.898;9.184;2023-11-19T00:35:44;1.60;;;0.40;;
49842;SDS011;55559;48.898;9.184;2023-11-19T00:38:12;0.60;;;0.22;;
49842;SDS011;55559;48.898;9.184;2023-11-19T00:40:46;2.25;;;0.40;;
49842;SDS011;55559;48.898;9.184;2023-11-19T00:43:13;1.05;;;0.20;;
49842;SDS011;55559;48.898;9.184;2023-11-19T00:45:46;0.50;;;0.20;;
49842;SDS011;55559;48.898;9.184;2023-11-19T00:48:15;2.78;;;0.50;;
49842;SDS011;55559;48.898;9.184;2023-11-19T00:50:49;0.40;;;0.20;;
49842;SDS011;55559;48.898;9.184;2023-11-19T00:53:17;2.65;;;0.28;;
49842;SDS011;55559;48.898;9.184;2023-11-19T00:55:57;1.00;;;0.25;;
49842;SDS011;55559;48.898;9.184;2023-11-19T00:58:38;0.68;;;0.28;;
49842;SDS011;55559;48.898;9.184;2023-11-19T01:01:05;0.50;;;0.15;;
49842;SDS011;55559;48.898;9.184;2023-11-19T01:03:39;1.80;;;0.50;;
49842;SDS011;55559;48.898;9.184;2023-11-19T01:06:06;0.43;;;0.10;;
49842;SDS011;55559;48.898;9.184;2023-11-19T01:08:43;1.13;;;0.10;;
49842;SDS011;55559;48.898;9.184;2023-11-19T01:11:19;3.20;;;0.20;;
49842;SDS011;55559;48.898;9.184;2023-11-19T01:13:52;0.88;;;0.30;;
49842;SDS011;55559;48.898;9.184;2023-11-19T01:16:20;0.82;;;0.20;;
49842;SDS011;55559;48.898;9.184;2023-11-19T01:18:54;0.35;;;0.15;;
49842;SDS011;55559;48.898;9.184;2023-11-19T01:21:21;0.47;;;0.20;;
49842;SDS011;55559;48.898;9.184;2023-11-19T01:23:56;0.30;;;0.10;;
49842;SDS011;55559;48.898;9.184;2023-11-19T01:26:23;0.80;;;0.20;;
49842;SDS011;55559;48.898;9.184;2023-11-19T01:31:23;0.32;;;0.10;;
49842;SDS011;55559;48.898;9.184;2023-11-19T01:33:57;0.55;;;0.15;;
49842;SDS011;55559;48.898;9.184;2023-11-19T01:36:24;0.43;;;0.10;;
49842;SDS011;55559;48.898;9.184;2023-11-19T01:38:59;7.15;;;0.20;;
49842;SDS011;55559;48.898;9.184;2023-11-19T01:41:26;0.82;;;0.28;;
49842;SDS011;55559;48.898;9.184;2023-11-19T01:43:59;2.58;;;0.20;;
49842;SDS011;55559;48.898;9.184;2023-11-19T01:46:26;0.22;;;0.10;;
49842;SDS011;55559;48.898;9.184;2023-11-19T01:49:00;0.40;;;0.10;;
49842;SDS011;55559;48.898;9.184;2023-11-19T01:51:28;1.55;;;0.10;;
49842;SDS011;55559;48.898;9.184;2023-11-19T01:54:03;0.22;;;0.10;;
49842;SDS011;55559;48.898;9.184;2023-11-19T01:56:30;1.38;;;0.20;;
49842;SDS011;55559;48.898;9.184;2023-11-19T01:59:11;0.75;;;0.32;;
49842;SDS011;55559;48.898;9.184;2023-11-19T02:01:46;1.50;;;0.10;;
49842;SDS011;55559;48.898;9.184;2023-11-19T02:04:13;1.23;;;0.00;;
49842;SDS011;55559;48.898;9.184;2023-11-19T02:06:47;0.68;;;0.00;;
49842;SDS011;55559;48.898;9.184;2023-11-19T02:09:16;0.50;;;0.00;;
49842;SDS011;55559;48.898;9.184;2023-11-19T02:11:51;1.13;;;0.08;;
49842;SDS011;55559;48.898;9.184;2023-11-19T02:14:18;0.15;;;0.00;;
49842;SDS011;55559;48.898;9.184;2023-11-19T02:16:52;1.75;;;0.00;;
49842;SDS011;55559;48.898;9.184;2023-11-19T02:19:19;0.38;;;0.10;;
49842;SDS011;55559;48.898;9.184;2023-11-19T02:21:53;1.48;;;0.10;;
49842;SDS011;55559;48.898;9.184;2023-11-19T02:24:22;0.38;;;0.20;;
49842;SDS011;55559;48.898;9.184;2023-11-19T02:27:01;1.55;;;0.10;;
49842;SDS011;55559;48.898;9.184;2023-11-19T02:29:38;0.50;;;0.15;;
49842;SDS011;55559;48.898;9.184;2023-11-19T02:32:05;0.90;;;0.10;;
49842;SDS011;55559;48.898;9.184;2023-11-19T02:34:41;0.38;;;0.05;;
49842;SDS011;55559;48.898;9.184;2023-11-19T02:37:08;0.38;;;0.10;;
49842;SDS011;55559;48.898;9.184;2023-11-19T02:39:42;0.80;;;0.00;;
49842;SDS011;55559;48.898;9.184;2023-11-19T02:42:09;1.88;;;0.10;;
49842;SDS011;55559;48.898;9.184;2023-11-19T02:44:45;0.77;;;0.10;;
49842;SDS011;55559;48.898;9.184;2023-11-19T02:47:21;2.95;;;0.10;;
49842;SDS011;55559;48.898;9.184;2023-11-19T02:49:49;0.55;;;0.00;;
49842;SDS011;55559;48.898;9.184;2023-11-19T02:52:25;0.82;;;0.00;;
49842;SDS011;55559;48.898;9.184;2023-11-19T02:54:53;1.02;;;0.10;;
49842;SDS011;55559;48.898;9.184;2023-11-19T02:57:30;0.52;;;0.10;;
49842;SDS011;55559;48.898;9.184;2023-11-19T03:00:14;0.35;;;0.10;;
49842;SDS011;55559;48.898;9.184;2023-11-19T03:02:41;1.15;;;0.10;;
49842;SDS011;55559;48.898;9.184;2023-11-19T03:05:18;0.50;;;0.20;;
49842;SDS011;55559;48.898;9.184;2023-11-19T03:07:48;0.40;;;0.20;;
49842;SDS011;55559;48.898;9.184;2023-11-19T03:10:22;0.30;;;0.20;;
49842;SDS011;55559;48.898;9.184;2023-11-19T03:12:49;0.80;;;0.25;;
49842;SDS011;55559;48.898;9.184;2023-11-19T03:15:24;5.70;;;0.28;;
49842;SDS011;55559;48.898;9.184;2023-11-19T03:17:51;1.05;;;0.20;;
49842;SDS011;55559;48.898;9.184;2023-11-19T03:22:53;0.25;;;0.10;;
49842;SDS011;55559;48.898;9.184;2023-11-19T03:25:27;2.25;;;0.10;;
49842;SDS011;55559;48.898;9.184;2023-11-19T03:28:05;0.57;;;0.15;;
49842;SDS011;55559;48.898;9.184;2023-11-19T03:30:33;3.00;;;0.20;;
49842;SDS011;55559;48.898;9.184;2023-11-19T03:33:07;0.95;;;0.10;;
49842;SDS011;55559;48.898;9.184;2023-11-19T03:35:34;0.85;;;0.20;;
49842;SDS011;55559;48.898;9.184;2023-11-19T03:38:08;1.55;;;0.30;;
49842;SDS011;55559;48.898;9.184;2023-11-19T03:40:35;0.85;;;0.30;;
49842;SDS011;55559;48.898;9.184;2023-11-19T03:43:12;1.10;;;0.65;;
49842;SDS011;55559;48.898;9.184;2023-11-19T03:45:41;1.60;;;0.60;;
49842;SDS011;55559;48.898;9.184;2023-11-19T03:48:15;1.48;;;0.70;;
49842;SDS011;55559;48.898;9.184;2023-11-19T03:50:42;0.85;;;0.40;;
49842;SDS011;55559;48.898;9.184;2023-11-19T03:55:44;3.35;;;0.55;;
49842;SDS011;55559;48.898;9.184;2023-11-19T03:58:24;1.30;;;0.20;;
49842;SDS011;55559;48.898;9.184;2023-11-19T04:00:59;0.47;;;0.28;;
49842;SDS011;55559;48.898;9.184;2023-11-19T04:03:26;0.60;;;0.40;;
49842;SDS011;55559;48.898;9.184;2023-11-19T04:08:26;1.25;;;0.70;;
49842;SDS011;55559;48.898;9.184;2023-11-19T04:11:00;1.05;;;0.52;;
49842;SDS011;55559;48.898;9.184;2023-11-19T04:13:27;2.65;;;0.80;;
49842;SDS011;55559;48.898;9.184;2023-11-19T04:16:02;1.65;;;0.70;;
49842;SDS011;55559;48.898;9.184;2023-11-19T04:18:29;1.02;;;0.73;;
49842;SDS011;55559;48.898;9.184;2023-11-19T04:21:05;2.92;;;0.80;;
49842;SDS011;55559;48.898;9.184;2023-11-19T04:23:32;1.95;;;0.85;;
49842;SDS011;55559;48.898;9.184;2023-11-19T04:26:06;1.30;;;0.75;;
49842;SDS011;55559;48.898;9.184;2023-11-19T04:28:33;0.95;;;0.70;;
49842;SDS011;55559;48.898;9.184;2023-11-19T04:31:08;2.80;;;0.90;;
49842;SDS011;55559;48.898;9.184;2023-11-19T04:33:35;1.40;;;0.60;;
49842;SDS011;55559;48.898;9.184;2023-11-19T04:38:35;6.55;;;0.80;;
49842;SDS011;55559;48.898;9.184;2023-11-19T04:41:10;1.35;;;0.60;;
49842;SDS011;55559;48.898;9.184;2023-11-19T04:43:37;1.17;;;0.70;;
49842;SDS011;55559;48.898;9.184;2023-11-19T04:46:12;1.63;;;0.60;;
49842;SDS011;55559;48.898;9.184;2023-11-19T04:48:39;2.03;;;0.52;;
49842;SDS011;55559;48.898;9.184;2023-11-19T04:51:13;0.88;;;0.40;;
49842;SDS011;55559;48.898;9.184;2023-11-19T04:53:40;0.60;;;0.50;;
49842;SDS011;55559;48.898;9.184;2023-11-19T04:56:14;1.33;;;0.40;;
49842;SDS011;55559;48.898;9.184;2023-11-19T04:59:01;1.38;;;0.50;;
49842;SDS011;55559;48.898;9.184;2023-11-19T05:01:36;2.03;;;0.40;;
49842;SDS011;55559;48.898;9.184;2023-11-19T05:04:03;0.80;;;0.40;;
49842;SDS011;55559;48.898;9.184;2023-11-19T05:09:03;0.73;;;0.38;;
49842;SDS011;55559;48.898;9.184;2023-11-19T05:11:39;0.80;;;0.43;;
49842;SDS011;55559;48.898;9.184;2023-11-19T05:14:06;1.60;;;0.40;;
49842;SDS011;55559;48.898;9.184;2023-11-19T05:16:42;3.17;;;0.50;;
49842;SDS011;55559;48.898;9.184;2023-11-19T05:19:09;1.38;;;0.30;;
49842;SDS011;55559;48.898;9.184;2023-11-19T05:21:43;2.10;;;0.20;;
49842;SDS011;55559;48.898;9.184;2023-11-19T05:24:10;0.57;;;0.20;;
49842;SDS011;55559;48.898;9.184;2023-11-19T05:26:45;0.52;;;0.10;;
49842;SDS011;55559;48.898;9.184;2023-11-19T05:29:12;0.10;;;0.10;;
49842;SDS011;55559;48.898;9.184;2023-11-19T05:31:47;0.93;;;0.00;;
49842;SDS011;55559;48.898;9.184;2023-11-19T05:34:14;2.38;;;0.00;;
49842;SDS011;55559;48.898;9.184;2023-11-19T05:36:48;0.25;;;0.00;;
49842;SDS011;55559;48.898;9.184;2023-11-19T05:39:15;0.08;;;0.00;;
49842;SDS011;55559;48.898;9.184;2023-11-19T05:41:50;0.25;;;0.00;;
49842;SDS011;55559;48.898;9.184;2023-11-19T05:44:17;0.00;;;0.00;;
49842;SDS011;55559;48.898;9.184;2023-11-19T05:46:52;0.25;;;0.00;;
49842;SDS011;55559;48.898;9.184;2023-11-19T05:49:19;2.90;;;0.00;;
49842;SDS011;55559;48.898;9.184;2023-11-19T05:51:53;0.00;;;0.00;;
49842;SDS011;55559;48.898;9.184;2023-11-19T05:54:21;1.65;;;0.00;;
49842;SDS011;55559;48.898;9.184;2023-11-19T05:56:56;0.20;;;0.00;;
49842;SDS011;55559;48.898;9.184;2023-11-19T05:59:42;0.20;;;0.00;;
49842;SDS011;55559;48.898;9.184;2023-11-19T06:02:17;0.00;;;0.00;;
49842;SDS011;55559;48.898;9.184;2023-11-19T06:04:44;0.10;;;0.00;;
49842;SDS011;55559;48.898;9.184;2023-11-19T06:07:20;1.90;;;0.00;;
49842;SDS011;55559;48.898;9.184;2023-11-19T06:09:47;0.22;;;0.10;;
49842;SDS011;55559;48.898;9.184;2023-11-19T06:12:21;0.20;;;0.00;;
49842;SDS011;55559;48.898;9.184;2023-11-19T06:14:48;0.35;;;0.10;;
49842;SDS011;55559;48.898;9.184;2023-11-19T06:17:22;0.40;;;0.00;;
49842;SDS011;55559;48.898;9.184;2023-11-19T06:19:49;0.15;;;0.10;;
49842;SDS011;55559;48.898;9.184;2023-11-19T06:22:23;0.68;;;0.00;;
49842;SDS011;55559;48.898;9.184;2023-11-19T06:24:50;4.97;;;0.00;;
49842;SDS011;55559;48.898;9.184;2023-11-19T06:27:24;0.95;;;0.38;;
49842;SDS011;55559;48.898;9.184;2023-11-19T06:29:51;0.10;;;0.00;;
49842;SDS011;55559;48.898;9.184;2023-11-19T06:32:26;1.55;;;0.10;;
49842;SDS011;55559;48.898;9.184;2023-11-19T06:34:54;0.20;;;0.00;;
49842;SDS011;55559;48.898;9.184;2023-11-19T06:37:28;0.20;;;0.00;;
49842;SDS011;55559;48.898;9.184;2023-11-19T06:39:55;0.17;;;0.00;;
49842;SDS011;55559;48.898;9.184;2023-11-19T06:42:29;0.10;;;0.00;;
49842;SDS011;55559;48.898;9.184;2023-11-19T06:44:56;0.25;;;0.00;;
49842;SDS011;55559;48.898;9.184;2023-11-19T06:47:31;1.85;;;0.00;;
49842;SDS011;55559;48.898;9.184;2023-11-19T06:49:58;0.03;;;0.00;;
49842;SDS011;55559;48.898;9.184;2023-11-19T06:52:32;0.35;;;0.00;;
49842;SDS011;55559;48.898;9.184;2023-11-19T06:54:59;0.55;;;0.00;;
49842;SDS011;55559;48.898;9.184;2023-11-19T06:57:33;0.10;;;0.00;;
49842;SDS011;55559;48.898;9.184;2023-11-19T07:00:13;1.55;;;0.10;;
49842;SDS011;55559;48.898;9.184;2023-11-19T07:02:41;0.25;;;0.10;;
49842;SDS011;55559;48.898;9.184;2023-11-19T07:05:16;0.20;;;0.08;;
49842;SDS011;55559;48.898;9.184;2023-11-19T07:07:43;0.15;;;0.00;;
49842;SDS011;55559;48.898;9.184;2023-11-19T07:10:19;0.35;;;0.00;;
49842;SDS011;55559;48.898;9.184;2023-11-19T07:12:46;3.30;;;0.10;;
49842;SDS011;55559;48.898;9.184;2023-11-19T07:15:22;1.33;;;0.30;;
49842;SDS011;55559;48.898;9.184;2023-11-19T07:17:50;0.30;;;0.20;;
49842;SDS011;55559;48.898;9.184;2023-11-19T07:20:26;2.75;;;0.10;;
49842;SDS011;55559;48.898;9.184;2023-11-19T07:22:53;0.30;;;0.10;;
49842;SDS011;55559;48.898;9.184;2023-11-19T07:25:29;1.38;;;0.10;;
49842;SDS011;55559;48.898;9.184;2023-11-19T07:27:56;0.25;;;0.10;;
49842;SDS011;55559;48.898;9.184;2023-11-19T07:30:30;0.57;;;0.00;;
49842;SDS011;55559;48.898;9.184;2023-11-19T07:32:58;0.13;;;0.10;;
49842;SDS011;55559;48.898;9.184;2023-11-19T07:35:32;0.65;;;0.20;;
49842;SDS011;55559;48.898;9.184;2023-11-19T07:37:59;0.20;;;0.00;;
49842;SDS011;55559;48.898;9.184;2023-11-19T07:40:33;0.10;;;0.00;;
49842;SDS011;55559;48.898;9.184;2023-11-19T07:43:00;2.58;;;0.10;;
49842;SDS011;55559;48.898;9.184;2023-11-19T07:45:34;0.15;;;0.00;;
49842;SDS011;55559;48.898;9.184;2023-11-19T07:48:02;0.22;;;0.00;;
49842;SDS011;55559;48.898;9.184;2023-11-19T07:50:36;0.17;;;0.00;;
49842;SDS011;55559;48.898;9.184;2023-11-19T07:53:03;0.95;;;0.10;;
49842;SDS011;55559;48.898;9.184;2023-11-19T07:55:44;0.40;;;0.10;;
49842;SDS011;55559;48.898;9.184;2023-11-19T07:58:24;0.17;;;0.00;;
49842;SDS011;55559;48.898;9.184;2023-11-19T08:00:51;0.60;;;0.10;;
49842;SDS011;55559;48.898;9.184;2023-11-19T08:03:26;0.90;;;0.10;;
49842;SDS011;55559;48.898;9.184;2023-11-19T08:05:55;0.10;;;0.00;;
49842;SDS011;55559;48.898;9.184;2023-11-19T08:08:29;1.27;;;0.10;;
49842;SDS011;55559;48.898;9.184;2023-11-19T08:10:58;0.45;;;0.10;;
49842;SDS011;55559;48.898;9.184;2023-11-19T08:13:31;0.13;;;0.00;;
49842;SDS011;55559;48.898;9.184;2023-11-19T08:15:58;0.40;;;0.10;;
49842;SDS011;55559;48.898;9.184;2023-11-19T08:18:33;0.32;;;0.13;;
49842;SDS011;55559;48.898;9.184;2023-11-19T08:21:00;0.85;;;0.20;;
49842;SDS011;55559;48.898;9.184;2023-11-19T08:23:36;0.70;;;0.20;;
49842;SDS011;55559;48.898;9.184;2023-11-19T08:26:03;1.98;;;0.50;;
49842;SDS011;55559;48.898;9.184;2023-11-19T08:28:37;1.15;;;0.30;;
49842;SDS011;55559;48.898;9.184;2023-11-19T08:31:04;2.20;;;0.20;;
49842;SDS011;55559;48.898;9.184;2023-11-19T08:33:39;1.45;;;0.17;;
49842;SDS011;55559;48.898;9.184;2023-11-19T08:36:07;0.43;;;0.10;;
49842;SDS011;55559;48.898;9.184;2023-11-19T08:38:41;0.45;;;0.15;;
49842;SDS011;55559;48.898;9.184;2023-11-19T08:41:08;1.15;;;0.20;;
49842;SDS011;55559;48.898;9.184;2023-11-19T08:43:42;0.98;;;0.50;;
49842;SDS011;55559;48.898;9.184;2023-11-19T08:46:09;0.45;;;0.10;;
49842;SDS011;55559;48.898;9.184;2023-11-19T08:48:44;1.88;;;0.47;;
49842;SDS011;55559;48.898;9.184;2023-11-19T08:51:11;0.50;;;0.30;;
49842;SDS011;55559;48.898;9.184;2023-11-19T08:53:45;2.65;;;0.43;;
49842;SDS011;55559;48.898;9.184;2023-11-19T08:56:12;2.35;;;0.10;;
49842;SDS011;55559;48.898;9.184;2023-11-19T08:58:53;0.30;;;0.10;;
49842;SDS011;55559;48.898;9.184;2023-11-19T09:01:26;1.63;;;0.10;;
49842;SDS011;55559;48.898;9.184;2023-11-19T09:03:55;3.15;;;1.00;;
49842;SDS011;55559;48.898;9.184;2023-11-19T09:06:29;1.23;;;0.57;;
49842;SDS011;55559;48.898;9.184;2023-11-19T09:08:56;0.60;;;0.20;;
49842;SDS011;55559;48.898;9.184;2023-11-19T09:11:33;1.55;;;0.20;;
49842;SDS011;55559;48.898;9.184;2023-11-19T09:14:00;0.60;;;0.17;;
49842;SDS011;55559;48.898;9.184;2023-11-19T09:16:34;1.67;;;0.20;;
49842;SDS011;55559;48.898;9.184;2023-11-19T09:19:02;0.20;;;0.10;;
49842;SDS011;55559;48.898;9.184;2023-11-19T09:21:36;0.93;;;0.20;;
49842;SDS011;55559;48.898;9.184;2023-11-19T09:24:04;1.02;;;0.20;;
49842;SDS011;55559;48.898;9.184;2023-11-19T09:26:39;1.88;;;0.30;;
49842;SDS011;55559;48.898;9.184;2023-11-19T09:29:07;2.42;;;0.70;;
49842;SDS011;55559;48.898;9.184;2023-11-19T09:31:41;3.58;;;0.20;;
49842;SDS011;55559;48.898;9.184;2023-11-19T09:34:09;1.20;;;0.20;;
49842;SDS011;55559;48.898;9.184;2023-11-19T09:36:43;0.50;;;0.20;;
49842;SDS011;55559;48.898;9.184;2023-11-19T09:39:10;2.75;;;0.20;;
49842;SDS011;55559;48.898;9.184;2023-11-19T09:41:45;3.42;;;0.20;;
49842;SDS011;55559;48.898;9.184;2023-11-19T09:44:12;3.30;;;0.20;;
49842;SDS011;55559;48.898;9.184;2023-11-19T09:46:46;0.85;;;0.10;;
49842;SDS011;55559;48.898;9.184;2023-11-19T09:49:15;0.85;;;0.10;;
49842;SDS011;55559;48.898;9.184;2023-11-19T09:51:53;3.28;;;0.20;;
49842;SDS011;55559;48.898;9.184;2023-11-19T09:54:20;1.20;;;0.20;;
49842;SDS011;55559;48.898;9.184;2023-11-19T09:56:54;1.02;;;0.10;;
49842;SDS011;55559;48.898;9.184;2023-11-19T09:59:43;1.73;;;0.10;;
49842;SDS011;55559;48.898;9.184;2023-11-19T10:02:17;2.55;;;0.13;;
49842;SDS011;55559;48.898;9.184;2023-11-19T10:04:46;1.27;;;0.20;;
49842;SDS011;55559;48.898;9.184;2023-11-19T10:07:21;1.08;;;0.10;;
49842;SDS011;55559;48.898;9.184;2023-11-19T10:09:48;0.68;;;0.20;;
49842;SDS011;55559;48.898;9.184;2023-11-19T10:12:22;1.55;;;0.10;;
49842;SDS011;55559;48.898;9.184;2023-11-19T10:14:49;1.38;;;0.10;;
49842;SDS011;55559;48.898;9.184;2023-11-19T10:17:26;1.70;;;0.10;;
49842;SDS011;55559;48.898;9.184;2023-11-19T10:20:02;3.08;;;0.08;;
49842;SDS011;55559;48.898;9.184;2023-11-19T10:22:30;0.93;;;0.10;;
49842;SDS011;55559;48.898;9.184;2023-11-19T10:25:03;3.13;;;0.45;;
49842;SDS011;55559;48.898;9.184;2023-11-19T10:27:30;4.18;;;0.20;;
49842;SDS011;55559;48.898;9.184;2023-11-19T10:30:04;0.65;;;0.10;;
49842;SDS011;55559;48.898;9.184;2023-11-19T10:32:32;1.13;;;0.10;;
49842;SDS011;55559;48.898;9.184;2023-11-19T10:35:07;5.75;;;0.28;;
49842;SDS011;55559;48.898;9.184;2023-11-19T10:37:44;1.90;;;0.10;;
49842;SDS011;55559;48.898;9.184;2023-11-19T10:40:11;0.47;;;0.10;;
49842;SDS011;55559;48.898;9.184;2023-11-19T10:42:45;1.05;;;0.20;;
49842;SDS011;55559;48.898;9.184;2023-11-19T10:45:21;3.70;;;0.20;;
49842;SDS011;55559;48.898;9.184;2023-11-19T10:47:55;0.70;;;0.10;;
49842;SDS011;55559;48.898;9.184;2023-11-19T10:50:23;1.17;;;0.20;;
49842;SDS011;55559;48.898;9.184;2023-11-19T10:52:57;1.25;;;0.15;;
49842;SDS011;55559;48.898;9.184;2023-11-19T10:55:26;1.85;;;0.13;;
49842;SDS011;55559;48.898;9.184;2023-11-19T10:58:08;1.33;;;0.10;;
49842;SDS011;55559;48.898;9.184;2023-11-19T11:00:50;1.40;;;0.00;;
49842;SDS011;55559;48.898;9.184;2023-11-19T11:03:26;1.88;;;0.13;;
49842;SDS011;55559;48.898;9.184;2023-11-19T11:06:05;1.30;;;0.25;;
49842;SDS011;55559;48.898;9.184;2023-11-19T11:08:31;1.83;;;0.50;;
49842;SDS011;55559;48.898;9.184;2023-11-19T11:11:05;0.82;;;0.20;;
49842;SDS011;55559;48.898;9.184;2023-11-19T11:13:32;6.03;;;1.27;;
49842;SDS011;55559;48.898;9.184;2023-11-19T11:16:07;1.50;;;0.10;;
49842;SDS011;55559;48.898;9.184;2023-11-19T11:18:34;2.97;;;0.20;;
49842;SDS011;55559;48.898;9.184;2023-11-19T11:21:11;2.90;;;0.32;;
49842;SDS011;55559;48.898;9.184;2023-11-19T11:27:01;0.80;;;0.17;;
49842;SDS011;55559;48.898;9.184;2023-11-19T11:29:37;1.02;;;0.20;;
49842;SDS011;55559;48.898;9.184;2023-11-19T11:32:17;4.88;;;0.20;;
49842;SDS011;55559;48.898;9.184;2023-11-19T11:34:58;2.03;;;0.20;;
49842;SDS011;55559;48.898;9.184;2023-11-19T11:37:39;1.85;;;0.43;;
49842;SDS011;55559;48.898;9.184;2023-11-19T11:40:15;1.70;;;0.35;;
49842;SDS011;55559;48.898;9.184;2023-11-19T11:42:43;2.47;;;0.40;;
49842;SDS011;55559;48.898;9.184;2023-11-19T11:45:17;3.55;;;0.20;;
49842;SDS011;55559;48.898;9.184;2023-11-19T11:50:36;0.65;;;0.10;;
49842;SDS011;55559;48.898;9.184;2023-11-19T11:53:25;0.82;;;0.20;;
49842;SDS011;55559;48.898;9.184;2023-11-19T11:56:06;2.17;;;0.13;;
49842;SDS011;55559;48.898;9.184;2023-11-19T11:58:48;5.93;;;0.20;;
49842;SDS011;55559;48.898;9.184;2023-11-19T12:01:15;1.92;;;0.10;;
49842;SDS011;55559;48.898;9.184;2023-11-19T12:03:55;1.05;;;0.10;;
49842;SDS011;55559;48.898;9.184;2023-11-19T12:06:22;2.03;;;0.30;;
49842;SDS011;55559;48.898;9.184;2023-11-19T12:09:00;3.58;;;0.70;;
49842;SDS011;55559;48.898;9.184;2023-11-19T12:11:35;4.28;;;0.25;;
49842;SDS011;55559;48.898;9.184;2023-11-19T12:14:03;2.35;;;0.20;;
49842;SDS011;55559;48.898;9.184;2023-11-19T12:16:38;1.83;;;0.28;;
49842;SDS011;55559;48.898;9.184;2023-11-19T12:19:05;2.33;;;0.28;;
49842;SDS011;55559;48.898;9.184;2023-11-19T12:21:40;2.00;;;0.20;;
49842;SDS011;55559;48.898;9.184;2023-11-19T12:24:08;1.35;;;0.13;;
49842;SDS011;55559;48.898;9.184;2023-11-19T12:26:43;12.65;;;0.35;;
49842;SDS011;55559;48.898;9.184;2023-11-19T12:29:10;0.88;;;0.20;;
49842;SDS011;55559;48.898;9.184;2023-11-19T12:31:44;3.17;;;0.20;;
49842;SDS011;55559;48.898;9.184;2023-11-19T12:34:11;3.33;;;0.30;;
49842;SDS011;55559;48.898;9.184;2023-11-19T12:36:45;1.60;;;0.20;;
49842;SDS011;55559;48.898;9.184;2023-11-19T12:39:14;2.30;;;0.20;;
49842;SDS011;55559;48.898;9.184;2023-11-19T12:41:50;0.70;;;0.25;;
49842;SDS011;55559;48.898;9.184;2023-11-19T12:44:24;2.05;;;0.25;;
49842;SDS011;55559;48.898;9.184;2023-11-19T12:47:00;4.95;;;1.33;;
49842;SDS011;55559;48.898;9.184;2023-11-19T12:49:34;1.33;;;0.20;;
49842;SDS011;55559;48.898;9.184;2023-11-19T12:52:01;3.70;;;0.10;;
49842;SDS011;55559;48.898;9.184;2023-11-19T12:54:37;4.40;;;0.10;;
49842;SDS011;55559;48.898;9.184;2023-11-19T12:57:04;5.70;;;0.20;;
49842;SDS011;55559;48.898;9.184;2023-11-19T12:59:54;2.20;;;0.22;;
49842;SDS011;55559;48.898;9.184;2023-11-19T13:05:22;1.77;;;0.22;;
49842;SDS011;55559;48.898;9.184;2023-11-19T13:08:02;6.13;;;0.30;;
49842;SDS011;55559;48.898;9.184;2023-11-19T13:10:50;2.20;;;0.28;;
49842;SDS011;55559;48.898;9.184;2023-11-19T13:13:25;3.92;;;0.13;;
49842;SDS011;55559;48.898;9.184;2023-11-19T13:15:52;1.50;;;0.20;;
49842;SDS011;55559;48.898;9.184;2023-11-19T13:18:26;0.90;;;0.13;;
49842;SDS011;55559;48.898;9.184;2023-11-19T13:20:53;0.43;;;0.10;;
49842;SDS011;55559;48.898;9.184;2023-11-19T13:23:29;1.10;;;0.10;;
49842;SDS011;55559;48.898;9.184;2023-11-19T13:25:58;1.73;;;0.15;;
49842;SDS011;55559;48.898;9.184;2023-11-19T13:28:32;2.05;;;0.20;;
49842;SDS011;55559;48.898;9.184;2023-11-19T13:30:59;1.23;;;0.20;;
49842;SDS011;55559;48.898;9.184;2023-11-19T13:33:33;2.03;;;0.20;;
49842;SDS011;55559;48.898;9.184;2023-11-19T13:36:01;1.80;;;0.10;;
49842;SDS011;55559;48.898;9.184;2023-11-19T13:38:38;0.60;;;0.15;;
49842;SDS011;55559;48.898;9.184;2023-11-19T13:41:07;3.05;;;0.10;;
49842;SDS011;55559;48.898;9.184;2023-11-19T13:43:42;0.63;;;0.10;;
49842;SDS011;55559;48.898;9.184;2023-11-19T13:46:09;1.38;;;0.10;;
49842;SDS011;55559;48.898;9.184;2023-11-19T13:48:43;0.25;;;0.10;;
49842;SDS011;55559;48.898;9.184;2023-11-19T13:51:10;1.70;;;0.10;;
49842;SDS011;55559;48.898;9.184;2023-11-19T13:53:44;0.40;;;0.10;;
49842;SDS011;55559;48.898;9.184;2023-11-19T13:56:12;2.92;;;0.20;;
49842;SDS011;55559;48.898;9.184;2023-11-19T13:58:46;1.60;;;0.15;;
49842;SDS011;55559;48.898;9.184;2023-11-19T14:01:26;2.97;;;0.40;;
49842;SDS011;55559;48.898;9.184;2023-11-19T14:03:53;2.38;;;0.30;;
49842;SDS011;55559;48.898;9.184;2023-11-19T14:06:27;2.28;;;0.20;;
49842;SDS011;55559;48.898;9.184;2023-11-19T14:08:55;2.22;;;0.10;;
49842;SDS011;55559;48.898;9.184;2023-11-19T14:11:29;1.48;;;0.20;;
49842;SDS011;55559;48.898;9.184;2023-11-19T14:13:56;0.52;;;0.10;;
49842;SDS011;55559;48.898;9.184;2023-11-19T14:16:30;0.15;;;0.00;;
49842;SDS011;55559;48.898;9.184;2023-11-19T14:18:58;3.05;;;0.10;;
49842;SDS011;55559;48.898;9.184;2023-11-19T14:21:31;1.52;;;0.30;;
49842;SDS011;55559;48.898;9.184;2023-11-19T14:23:58;1.00;;;0.13;;
49842;SDS011;55559;48.898;9.184;2023-11-19T14:26:33;0.77;;;0.10;;
49842;SDS011;55559;48.898;9.184;2023-11-19T14:29:00;2.33;;;0.10;;
49842;SDS011;55559;48.898;9.184;2023-11-19T14:31:34;1.20;;;0.20;;
49842;SDS011;55559;48.898;9.184;2023-11-19T14:34:02;0.68;;;0.10;;
49842;SDS011;55559;48.898;9.184;2023-11-19T14:36:35;1.15;;;0.20;;
49842;SDS011;55559;48.898;9.184;2023-11-19T14:39:02;2.67;;;0.10;;
49842;SDS011;55559;48.898;9.184;2023-11-19T14:41:37;1.95;;;0.13;;
49842;SDS011;55559;48.898;9.184;2023-11-19T14:44:05;0.40;;;0.10;;
49842;SDS011;55559;48.898;9.184;2023-11-19T14:46:38;0.65;;;0.17;;
49842;SDS011;55559;48.898;9.184;2023-11-19T14:49:05;1.23;;;0.20;;
49842;SDS011;55559;48.898;9.184;2023-11-19T14:51:39;4.00;;;0.20;;
49842;SDS011;55559;48.898;9.184;2023-11-19T14:54:06;1.67;;;0.20;;
49842;SDS011;55559;48.898;9.184;2023-11-19T14:56:48;1.10;;;0.20;;
49842;SDS011;55559;48.898;9.184;2023-11-19T14:59:28;1.58;;;0.20;;
49842;SDS011;55559;48.898;9.184;2023-11-19T15:01:55;1.35;;;0.15;;
49842;SDS011;55559;48.898;9.184;2023-11-19T15:04:29;1.42;;;0.20;;
49842;SDS011;55559;48.898;9.184;2023-11-19T15:06:56;0.55;;;0.10;;
49842;SDS011;55559;48.898;9.184;2023-11-19T15:09:45;1.13;;;0.30;;
49842;SDS011;55559;48.898;9.184;2023-11-19T15:12:19;1.83;;;0.10;;
49842;SDS011;55559;48.898;9.184;2023-11-19T15:15:00;2.35;;;0.20;;
49842;SDS011;55559;48.898;9.184;2023-11-19T15:17:28;0.77;;;0.10;;
49842;SDS011;55559;48.898;9.184;2023-11-19T15:20:03;0.73;;;0.20;;
49842;SDS011;55559;48.898;9.184;2023-11-19T15:22:30;0.75;;;0.13;;
49842;SDS011;55559;48.898;9.184;2023-11-19T15:25:03;1.55;;;0.20;;
49842;SDS011;55559;48.898;9.184;2023-11-19T15:27:34;2.15;;;0.20;;
49842;SDS011;55559;48.898;9.184;2023-11-19T15:30:09;4.57;;;0.20;;
49842;SDS011;55559;48.898;9.184;2023-11-19T15:32:36;0.70;;;0.10;;
49842;SDS011;55559;48.898;9.184;2023-11-19T15:35:08;3.27;;;0.30;;
49842;SDS011;55559;48.898;9.184;2023-11-19T15:37:36;1.90;;;0.20;;
49842;SDS011;55559;48.898;9.184;2023-11-19T15:40:10;0.75;;;0.20;;